Terminal Aerodrome Forecast
Issued by NWS North Platte, NE

Home | Current Version | Previous Version | Graphics & Text | Print | Product List | Glossary On
Versions: 1 2 3 4 5 6 7 8 9 10 11 12 13 14 15 16
929
FTUS43 KLBF 221120
TAFVTN
TAF
KVTN 221120Z 2212/2312 21012KT P6SM SKC
     FM221700 19019G28KT P6SM FEW250
     FM230900 19015KT P6SM SCT150=

USA.gov is the U.S. government's official web portal to all federal, state and local government web resources and services.